Time;durP1;ratioP1;P1;durP2;ratioP2;P2;SDS_P1;SDS_P2;PMS_P1;PMS_P2;Temp;Humidity;BMP_temperature;BMP_pressure;BME280_temperature;BME280_humidity;BME280_pressure;Samples;Min_cycle;Max_cycle;Signal;HPM_P1;HPM_P2
2022/10/22 00:02:00;;;;;;;0.98;0.88;;;;;;;;;;4490802;28;27384;-63
2022/10/22 00:04:10;;;;;;;1.63;1.52;;;;;;;;;;4490438;28;20030;-63
2022/10/22 00:06:21;;;;;;;4.13;3.72;;;;;;;;;;4492743;28;20049;-63
2022/10/22 00:08:31;;;;;;;4.50;4.10;;;;;;;;;;4491893;28;34996;-63
2022/10/22 00:10:42;;;;;;;2.75;2.00;;;;;;;;;;4493949;28;20034;-63
2022/10/22 00:12:52;;;;;;;1.20;1.10;;;;;;;;;;4493083;28;20034;-63
2022/10/22 00:15:04;;;;;;;0.90;0.70;;;;;;;;;;4492809;28;33006;-63
2022/10/22 00:17:16;;;;;;;0.88;0.70;;;;;;;;;;4489792;28;21625;-63
2022/10/22 00:19:27;;;;;;;0.60;0.60;;;;;;;;;;4491818;28;20038;-64
2022/10/22 00:21:37;;;;;;;0.50;0.50;;;;;;;;;;4492963;28;20066;-63
2022/10/22 00:23:47;;;;;;;0.60;0.52;;;;;;;;;;4490734;28;31309;-63
2022/10/22 00:25:58;;;;;;;1.35;0.73;;;;;;;;;;4490153;28;20096;-63
2022/10/22 00:28:10;;;;;;;0.73;0.73;;;;;;;;;;4498819;28;22252;-63
2022/10/22 00:30:20;;;;;;;0.95;0.60;;;;;;;;;;4490199;28;20568;-63
2022/10/22 00:32:31;;;;;;;0.70;0.68;;;;;;;;;;4491492;28;20033;-63
2022/10/22 00:34:41;;;;;;;0.60;0.60;;;;;;;;;;4490474;28;20038;-63
2022/10/22 00:36:52;;;;;;;0.68;0.68;;;;;;;;;;4491823;28;20038;-63
2022/10/22 00:39:03;;;;;;;0.77;0.70;;;;;;;;;;4491822;28;20120;-64
2022/10/22 00:41:13;;;;;;;0.80;0.80;;;;;;;;;;4477497;28;26711;-63
2022/10/22 00:43:23;;;;;;;1.00;0.90;;;;;;;;;;4490335;28;20046;-63
2022/10/22 00:45:34;;;;;;;1.20;1.00;;;;;;;;;;4499095;28;20045;-63
2022/10/22 00:48:03;;;;;;;1.20;1.10;;;;;;;;;;4490614;28;25135;-63
2022/10/22 00:50:25;;;;;;;1.08;1.00;;;;;;;;;;4491685;28;20030;-63
2022/10/22 00:52:35;;;;;;;1.30;1.02;;;;;;;;;;4494693;28;20729;-64
2022/10/22 00:54:46;;;;;;;1.00;0.88;;;;;;;;;;4488622;28;33885;-63
2022/10/22 00:56:56;;;;;;;1.00;0.90;;;;;;;;;;4489263;28;20034;-63
2022/10/22 00:59:07;;;;;;;1.20;0.80;;;;;;;;;;4498677;28;20681;-63
2022/10/22 01:01:21;;;;;;;1.30;0.88;;;;;;;;;;4489123;28;34393;-63
2022/10/22 01:03:32;;;;;;;1.42;1.20;;;;;;;;;;4492783;28;20027;-63
2022/10/22 01:05:46;;;;;;;1.50;1.02;;;;;;;;;;4489923;28;20042;-63
2022/10/22 01:07:56;;;;;;;3.08;2.25;;;;;;;;;;4488860;28;20073;-63
2022/10/22 01:10:17;;;;;;;3.95;3.17;;;;;;;;;;4490425;28;20113;-62
2022/10/22 01:12:33;;;;;;;2.10;1.50;;;;;;;;;;4495402;28;21022;-63
2022/10/22 01:15:02;;;;;;;1.38;1.20;;;;;;;;;;4491327;28;20138;-64
2022/10/22 01:17:43;;;;;;;1.40;1.20;;;;;;;;;;4491438;28;20038;-62
2022/10/22 01:20:03;;;;;;;1.30;1.20;;;;;;;;;;4490273;28;20042;-63
2022/10/22 01:22:21;;;;;;;1.00;0.90;;;;;;;;;;4490847;28;20095;-63
2022/10/22 01:24:38;;;;;;;0.70;0.70;;;;;;;;;;4492572;28;20041;-63
2022/10/22 01:27:09;;;;;;;0.80;0.80;;;;;;;;;;4482199;28;20046;-63
2022/10/22 01:29:40;;;;;;;1.00;0.82;;;;;;;;;;4496058;28;20037;-63
2022/10/22 01:31:54;;;;;;;1.00;0.90;;;;;;;;;;4491066;28;20582;-63
2022/10/22 01:34:07;;;;;;;1.67;0.80;;;;;;;;;;4490978;28;20046;-63
2022/10/22 01:36:18;;;;;;;0.70;0.70;;;;;;;;;;4489529;28;20030;-63
2022/10/22 01:38:28;;;;;;;0.90;0.90;;;;;;;;;;4491846;28;21105;-63
2022/10/22 01:40:40;;;;;;;0.82;0.82;;;;;;;;;;4491563;28;20069;-63
2022/10/22 01:43:10;;;;;;;0.77;0.75;;;;;;;;;;4494302;28;20022;-63
2022/10/22 01:45:20;;;;;;;1.15;0.90;;;;;;;;;;4491002;28;20077;-63
2022/10/22 01:47:37;;;;;;;0.93;0.80;;;;;;;;;;4490562;28;20104;-63
2022/10/22 01:50:12;;;;;;;0.57;0.57;;;;;;;;;;4488425;28;20060;-63
2022/10/22 01:52:28;;;;;;;0.50;0.50;;;;;;;;;;4490098;28;20038;-63
2022/10/22 01:54:50;;;;;;;0.60;0.60;;;;;;;;;;4489417;28;20042;-63
2022/10/22 01:57:22;;;;;;;0.50;0.50;;;;;;;;;;4496514;28;20048;-63
2022/10/22 01:59:52;;;;;;;0.60;0.50;;;;;;;;;;4495692;28;20140;-63
2022/10/22 02:02:09;;;;;;;0.77;0.70;;;;;;;;;;4475624;28;20037;-63
2022/10/22 02:04:34;;;;;;;0.55;0.55;;;;;;;;;;4490831;28;20026;-63
2022/10/22 02:06:46;;;;;;;0.60;0.60;;;;;;;;;;4494548;28;20052;-63
2022/10/22 02:08:57;;;;;;;1.38;0.70;;;;;;;;;;4493647;28;20044;-63
2022/10/22 02:11:08;;;;;;;1.00;0.90;;;;;;;;;;4486998;28;33344;-63
2022/10/22 02:13:25;;;;;;;1.52;0.80;;;;;;;;;;4483115;28;20038;-62
2022/10/22 02:15:37;;;;;;;1.23;0.80;;;;;;;;;;4498505;28;20827;-64
2022/10/22 02:17:47;;;;;;;1.35;1.00;;;;;;;;;;4496852;28;30312;-63
2022/10/22 02:20:12;;;;;;;1.15;1.05;;;;;;;;;;4489061;28;22469;-63
2022/10/22 02:22:23;;;;;;;1.27;1.10;;;;;;;;;;4487558;28;20046;-63
2022/10/22 02:24:34;;;;;;;1.88;1.10;;;;;;;;;;4505588;28;20037;-63
2022/10/22 02:26:54;;;;;;;1.63;1.35;;;;;;;;;;4489244;28;20531;-63
2022/10/22 02:29:19;;;;;;;1.70;1.60;;;;;;;;;;4494934;28;20039;-63
2022/10/22 02:31:35;;;;;;;2.08;1.25;;;;;;;;;;4489725;28;20579;-63
2022/10/22 02:33:48;;;;;;;1.15;1.08;;;;;;;;;;4494129;28;20045;-63
2022/10/22 02:35:59;;;;;;;0.90;0.90;;;;;;;;;;4487428;28;20034;-63
2022/10/22 02:38:10;;;;;;;1.10;0.90;;;;;;;;;;4480791;28;20026;-63
2022/10/22 02:40:21;;;;;;;1.67;0.80;;;;;;;;;;4493618;28;20038;-63
2022/10/22 02:42:32;;;;;;;1.65;0.88;;;;;;;;;;4490852;28;20030;-63
2022/10/22 02:44:43;;;;;;;0.70;0.70;;;;;;;;;;4471742;28;37305;-63
2022/10/22 02:46:53;;;;;;;1.02;0.68;;;;;;;;;;4490657;28;20053;-63
2022/10/22 02:49:03;;;;;;;0.90;0.70;;;;;;;;;;4488278;28;20066;-63
2022/10/22 02:51:14;;;;;;;0.93;0.82;;;;;;;;;;4490099;28;40767;-62
2022/10/22 02:53:25;;;;;;;0.98;0.85;;;;;;;;;;4489093;28;20038;-63
2022/10/22 02:55:35;;;;;;;0.93;0.80;;;;;;;;;;4488510;28;34552;-63
2022/10/22 02:57:45;;;;;;;0.82;0.70;;;;;;;;;;4488891;28;20038;-63
2022/10/22 02:59:56;;;;;;;0.90;0.70;;;;;;;;;;4490276;28;20136;-63
2022/10/22 03:02:06;;;;;;;1.08;0.98;;;;;;;;;;4488643;28;20069;-63
2022/10/22 03:04:17;;;;;;;0.70;0.70;;;;;;;;;;4489250;28;41581;-63
2022/10/22 03:06:27;;;;;;;0.77;0.65;;;;;;;;;;4488879;28;32181;-63
2022/10/22 03:08:40;;;;;;;1.60;0.80;;;;;;;;;;4489344;28;20040;-63
2022/10/22 03:10:50;;;;;;;1.00;0.80;;;;;;;;;;4475569;28;20093;-63
2022/10/22 03:13:01;;;;;;;0.70;0.70;;;;;;;;;;4488833;28;20463;-64
2022/10/22 03:15:11;;;;;;;1.00;0.80;;;;;;;;;;4488940;28;20855;-63
2022/10/22 03:17:22;;;;;;;1.08;0.88;;;;;;;;;;4491176;28;20034;-63
2022/10/22 03:19:32;;;;;;;0.80;0.80;;;;;;;;;;4488682;28;30172;-63
2022/10/22 03:21:52;;;;;;;1.50;0.90;;;;;;;;;;4488339;28;41097;-63
2022/10/22 03:24:29;;;;;;;1.45;0.90;;;;;;;;;;4499737;28;20041;-63
2022/10/22 03:26:41;;;;;;;1.17;1.00;;;;;;;;;;4490245;28;20054;-63
2022/10/22 03:28:52;;;;;;;1.08;0.90;;;;;;;;;;4490424;28;21756;-63
2022/10/22 03:31:03;;;;;;;1.02;0.90;;;;;;;;;;4500180;28;20041;-63
2022/10/22 03:33:13;;;;;;;0.88;0.75;;;;;;;;;;4492203;28;34551;-63
2022/10/22 03:35:24;;;;;;;0.80;0.80;;;;;;;;;;4494031;28;20034;-63
2022/10/22 03:37:35;;;;;;;1.05;0.85;;;;;;;;;;4490105;28;41414;-64
2022/10/22 03:39:45;;;;;;;0.93;0.90;;;;;;;;;;4499719;28;20037;-63
2022/10/22 03:41:56;;;;;;;1.45;1.10;;;;;;;;;;4493047;28;20034;-63
2022/10/22 03:44:06;;;;;;;0.95;0.90;;;;;;;;;;4491842;28;29860;-63
2022/10/22 03:46:17;;;;;;;0.68;0.68;;;;;;;;;;4494152;28;20042;-63
2022/10/22 03:48:28;;;;;;;1.02;0.85;;;;;;;;;;4492021;28;20045;-63
2022/10/22 03:50:38;;;;;;;0.85;0.70;;;;;;;;;;4492516;28;20105;-63
2022/10/22 03:52:48;;;;;;;1.20;0.85;;;;;;;;;;4490415;28;20654;-63
2022/10/22 03:54:59;;;;;;;1.00;0.90;;;;;;;;;;4492392;28;41551;-63
2022/10/22 03:57:10;;;;;;;0.90;0.90;;;;;;;;;;4491171;28;20048;-64
2022/10/22 03:59:20;;;;;;;1.25;1.10;;;;;;;;;;4490653;28;41405;-63
2022/10/22 04:01:30;;;;;;;0.90;0.90;;;;;;;;;;4492140;28;35166;-62
2022/10/22 04:03:41;;;;;;;1.15;0.98;;;;;;;;;;4492022;28;21015;-62
2022/10/22 04:05:51;;;;;;;0.85;0.85;;;;;;;;;;4491115;28;40348;-62
2022/10/22 04:08:02;;;;;;;1.25;0.90;;;;;;;;;;4491229;28;31914;-62
2022/10/22 04:10:12;;;;;;;1.20;1.00;;;;;;;;;;4490136;28;20038;-62
2022/10/22 04:12:22;;;;;;;1.10;1.00;;;;;;;;;;4492233;28;20041;-62
2022/10/22 04:14:33;;;;;;;0.90;0.90;;;;;;;;;;4491292;28;42939;-62
2022/10/22 04:16:43;;;;;;;2.03;1.05;;;;;;;;;;4492759;28;20077;-61
2022/10/22 04:18:54;;;;;;;0.98;0.88;;;;;;;;;;4491832;28;20081;-62
2022/10/22 04:21:06;;;;;;;1.02;0.90;;;;;;;;;;4492674;28;26970;-62
2022/10/22 04:23:16;;;;;;;1.08;0.90;;;;;;;;;;4491306;28;20039;-62
2022/10/22 04:25:26;;;;;;;1.05;0.82;;;;;;;;;;4491944;28;34149;-62
2022/10/22 04:27:37;;;;;;;0.98;0.85;;;;;;;;;;4492747;28;20225;-62
2022/10/22 04:29:47;;;;;;;0.95;0.73;;;;;;;;;;4490607;28;40096;-61
2022/10/22 04:31:58;;;;;;;0.82;0.75;;;;;;;;;;4492059;28;20618;-62
2022/10/22 04:34:08;;;;;;;1.02;0.93;;;;;;;;;;4489393;28;20038;-61
2022/10/22 04:36:19;;;;;;;1.58;0.80;;;;;;;;;;4491480;28;20073;-62
2022/10/22 04:38:29;;;;;;;0.90;0.80;;;;;;;;;;4493279;28;20030;-62
2022/10/22 04:40:39;;;;;;;1.30;0.90;;;;;;;;;;4489980;28;28402;-62
2022/10/22 04:42:50;;;;;;;1.25;0.90;;;;;;;;;;4490596;28;35731;-61
2022/10/22 04:45:00;;;;;;;1.15;0.90;;;;;;;;;;4490624;28;31685;-62
2022/10/22 04:47:10;;;;;;;1.15;0.90;;;;;;;;;;4490285;28;26398;-62
2022/10/22 04:49:21;;;;;;;1.02;0.88;;;;;;;;;;4490906;28;25835;-62
2022/10/22 04:51:31;;;;;;;1.08;0.90;;;;;;;;;;4492110;28;27037;-61
2022/10/22 04:53:42;;;;;;;0.80;0.80;;;;;;;;;;4489651;28;31949;-62
2022/10/22 04:55:53;;;;;;;0.98;0.80;;;;;;;;;;4489616;28;20033;-62
2022/10/22 04:58:03;;;;;;;0.90;0.80;;;;;;;;;;4490404;28;21005;-62
2022/10/22 05:00:15;;;;;;;1.42;1.08;;;;;;;;;;4490243;28;30108;-61
2022/10/22 05:02:25;;;;;;;1.58;0.90;;;;;;;;;;4491881;28;20768;-61
2022/10/22 05:04:36;;;;;;;1.10;1.00;;;;;;;;;;4491253;28;20035;-62
2022/10/22 05:06:46;;;;;;;1.85;0.80;;;;;;;;;;4491187;28;39111;-62
2022/10/22 05:08:59;;;;;;;1.05;0.93;;;;;;;;;;4491099;28;20042;-61
2022/10/22 05:11:11;;;;;;;1.45;0.80;;;;;;;;;;4490564;28;20563;-61
2022/10/22 05:13:21;;;;;;;1.45;0.80;;;;;;;;;;4491043;28;20737;-62
2022/10/22 05:15:32;;;;;;;0.85;0.85;;;;;;;;;;4492189;28;20093;-61
2022/10/22 05:17:43;;;;;;;1.08;0.80;;;;;;;;;;4490652;28;20041;-62
2022/10/22 05:19:53;;;;;;;0.80;0.80;;;;;;;;;;4490387;28;24399;-61
2022/10/22 05:22:04;;;;;;;0.95;0.90;;;;;;;;;;4491129;28;41883;-62
2022/10/22 05:24:15;;;;;;;1.25;0.90;;;;;;;;;;4491696;28;20172;-62
2022/10/22 05:26:27;;;;;;;1.02;0.93;;;;;;;;;;4491521;28;27473;-62
2022/10/22 05:28:38;;;;;;;0.98;0.88;;;;;;;;;;4506711;28;20064;-62
2022/10/22 05:30:56;;;;;;;0.80;0.80;;;;;;;;;;4498763;28;20706;-62
2022/10/22 05:33:07;;;;;;;1.63;0.80;;;;;;;;;;4497478;28;20073;-62
2022/10/22 05:35:17;;;;;;;0.90;0.80;;;;;;;;;;4492165;28;31226;-62
2022/10/22 05:37:27;;;;;;;0.75;0.70;;;;;;;;;;4490311;28;39128;-62
2022/10/22 05:39:39;;;;;;;1.30;0.93;;;;;;;;;;4490958;28;38523;-62
2022/10/22 05:41:50;;;;;;;0.90;0.85;;;;;;;;;;4491913;28;20030;-61
2022/10/22 05:44:01;;;;;;;1.15;0.80;;;;;;;;;;4491124;28;20034;-62
2022/10/22 05:46:16;;;;;;;1.15;0.90;;;;;;;;;;4505190;28;20107;-62
2022/10/22 05:48:26;;;;;;;2.53;1.00;;;;;;;;;;4490656;28;20121;-62
2022/10/22 05:50:37;;;;;;;1.10;1.00;;;;;;;;;;4489698;28;23278;-62
2022/10/22 05:52:48;;;;;;;1.33;1.10;;;;;;;;;;4487844;28;20061;-61
2022/10/22 05:54:58;;;;;;;1.45;0.80;;;;;;;;;;4490772;28;20041;-62
2022/10/22 05:57:09;;;;;;;0.93;0.80;;;;;;;;;;4488629;28;20077;-62
2022/10/22 05:59:19;;;;;;;1.25;1.00;;;;;;;;;;4490049;28;20026;-62
2022/10/22 06:01:31;;;;;;;0.85;0.82;;;;;;;;;;4489974;28;29250;-62
2022/10/22 06:03:42;;;;;;;1.05;0.90;;;;;;;;;;4490286;28;20046;-62
2022/10/22 06:05:53;;;;;;;0.80;0.75;;;;;;;;;;4489795;28;20040;-63
2022/10/22 06:08:04;;;;;;;1.13;1.02;;;;;;;;;;4488736;28;37963;-64
2022/10/22 06:10:16;;;;;;;0.80;0.80;;;;;;;;;;4489974;28;20057;-63
2022/10/22 06:12:27;;;;;;;1.45;1.10;;;;;;;;;;4489036;28;20030;-62
2022/10/22 06:14:37;;;;;;;2.67;1.10;;;;;;;;;;4490495;28;20497;-63
2022/10/22 06:16:48;;;;;;;1.45;1.00;;;;;;;;;;4491635;28;21489;-62
2022/10/22 06:19:02;;;;;;;1.63;1.10;;;;;;;;;;4504345;28;20022;-63
2022/10/22 06:21:14;;;;;;;1.05;0.95;;;;;;;;;;4489898;28;20053;-62
2022/10/22 06:23:25;;;;;;;1.48;0.80;;;;;;;;;;4489223;28;20049;-63
2022/10/22 06:25:35;;;;;;;1.20;0.80;;;;;;;;;;4489493;28;30436;-64
2022/10/22 06:27:50;;;;;;;2.15;0.90;;;;;;;;;;4488311;28;20042;-62
2022/10/22 06:30:00;;;;;;;0.82;0.80;;;;;;;;;;4491197;28;20550;-63
2022/10/22 06:32:11;;;;;;;0.90;0.90;;;;;;;;;;4488062;28;41935;-62
2022/10/22 06:34:21;;;;;;;1.20;0.93;;;;;;;;;;4488772;28;20437;-63
2022/10/22 06:36:32;;;;;;;1.67;1.05;;;;;;;;;;4490960;28;20042;-63
2022/10/22 06:38:43;;;;;;;1.73;1.10;;;;;;;;;;4488671;28;20403;-63
2022/10/22 06:40:53;;;;;;;1.33;0.90;;;;;;;;;;4487804;28;20038;-63
2022/10/22 06:43:04;;;;;;;1.17;0.70;;;;;;;;;;4491034;28;20038;-63
2022/10/22 06:45:15;;;;;;;1.10;1.00;;;;;;;;;;4489071;28;20035;-62
2022/10/22 06:47:25;;;;;;;2.10;1.05;;;;;;;;;;4490059;28;20045;-63
2022/10/22 06:49:36;;;;;;;1.00;0.90;;;;;;;;;;4489436;28;23163;-63
2022/10/22 06:51:50;;;;;;;1.85;1.17;;;;;;;;;;4497238;28;20157;-63
2022/10/22 06:54:01;;;;;;;1.30;1.13;;;;;;;;;;4487348;28;21062;-63
2022/10/22 06:56:14;;;;;;;1.83;1.20;;;;;;;;;;4488266;28;20121;-63
2022/10/22 06:58:25;;;;;;;1.50;1.10;;;;;;;;;;4498189;28;20037;-63
2022/10/22 07:00:35;;;;;;;2.05;1.08;;;;;;;;;;4492853;28;20825;-63
2022/10/22 07:02:51;;;;;;;1.95;1.40;;;;;;;;;;4501024;28;20440;-63
2022/10/22 07:05:02;;;;;;;1.40;1.08;;;;;;;;;;4497825;28;20607;-64
2022/10/22 07:07:13;;;;;;;1.38;1.10;;;;;;;;;;4495965;28;20120;-63
2022/10/22 07:09:24;;;;;;;1.25;1.00;;;;;;;;;;4491897;28;20037;-63
2022/10/22 07:11:40;;;;;;;1.42;1.30;;;;;;;;;;4492570;28;25145;-63
2022/10/22 07:13:53;;;;;;;1.52;1.17;;;;;;;;;;4496425;28;20145;-63
2022/10/22 07:16:04;;;;;;;1.50;1.02;;;;;;;;;;4500634;28;20041;-63
2022/10/22 07:18:15;;;;;;;1.33;1.00;;;;;;;;;;4483569;28;20111;-64
2022/10/22 07:20:25;;;;;;;1.73;1.10;;;;;;;;;;4492389;28;20682;-63
2022/10/22 07:22:35;;;;;;;1.35;1.00;;;;;;;;;;4490584;28;39575;-63
2022/10/22 07:24:46;;;;;;;2.38;1.08;;;;;;;;;;4491844;28;20065;-65
2022/10/22 07:26:56;;;;;;;1.05;0.93;;;;;;;;;;4491194;28;20046;-63
2022/10/22 07:29:08;;;;;;;0.93;0.80;;;;;;;;;;4491112;28;20039;-64
2022/10/22 07:31:19;;;;;;;1.23;0.88;;;;;;;;;;4493008;28;20148;-64
2022/10/22 07:33:29;;;;;;;0.85;0.80;;;;;;;;;;4490788;28;20451;-63
2022/10/22 07:35:40;;;;;;;1.08;0.90;;;;;;;;;;4490603;28;33814;-66
2022/10/22 07:37:50;;;;;;;1.02;0.98;;;;;;;;;;4492205;28;20080;-63
2022/10/22 07:40:01;;;;;;;0.98;0.88;;;;;;;;;;4490221;28;25550;-63
2022/10/22 07:42:11;;;;;;;1.00;0.90;;;;;;;;;;4491690;28;20477;-63
2022/10/22 07:44:21;;;;;;;1.10;1.00;;;;;;;;;;4490908;28;25332;-64
2022/10/22 07:46:34;;;;;;;1.40;1.10;;;;;;;;;;4491842;28;31162;-64
2022/10/22 07:48:44;;;;;;;1.30;1.02;;;;;;;;;;4491269;28;20830;-63
2022/10/22 07:50:57;;;;;;;1.40;1.10;;;;;;;;;;4492262;28;20318;-63
2022/10/22 07:53:07;;;;;;;1.50;1.20;;;;;;;;;;4493255;28;20035;-63
2022/10/22 07:55:18;;;;;;;1.30;1.10;;;;;;;;;;4492442;28;20431;-64
2022/10/22 07:57:28;;;;;;;1.40;1.10;;;;;;;;;;4500334;28;20033;-63
2022/10/22 07:59:38;;;;;;;1.70;1.20;;;;;;;;;;4491211;28;31267;-63
2022/10/22 08:01:49;;;;;;;2.05;1.20;;;;;;;;;;4490876;28;20608;-63
2022/10/22 08:03:59;;;;;;;2.17;1.38;;;;;;;;;;4490724;28;20683;-63
2022/10/22 08:06:12;;;;;;;1.42;1.25;;;;;;;;;;4491341;28;20062;-63
2022/10/22 08:08:22;;;;;;;1.40;1.27;;;;;;;;;;4489022;28;20034;-64
2022/10/22 08:10:33;;;;;;;2.50;1.30;;;;;;;;;;4492479;28;20647;-63
2022/10/22 08:12:44;;;;;;;1.38;1.27;;;;;;;;;;4490887;28;20034;-63
2022/10/22 08:14:54;;;;;;;1.70;1.33;;;;;;;;;;4500487;28;20415;-63
2022/10/22 08:17:05;;;;;;;1.27;1.17;;;;;;;;;;4489507;28;20034;-63
2022/10/22 08:19:20;;;;;;;1.67;1.23;;;;;;;;;;4491139;28;21764;-63
2022/10/22 08:21:30;;;;;;;1.80;1.30;;;;;;;;;;4489791;28;20069;-63
2022/10/22 08:23:40;;;;;;;2.25;1.40;;;;;;;;;;4499492;28;22238;-63
2022/10/22 08:25:51;;;;;;;1.67;1.30;;;;;;;;;;4490002;28;20527;-64
2022/10/22 08:28:01;;;;;;;2.10;1.30;;;;;;;;;;4477626;28;20407;-63
2022/10/22 08:30:13;;;;;;;1.50;1.40;;;;;;;;;;4491273;28;20038;-63
2022/10/22 08:32:23;;;;;;;1.80;1.30;;;;;;;;;;4489798;28;20030;-63
2022/10/22 08:34:34;;;;;;;1.85;1.30;;;;;;;;;;4490059;28;20031;-63
2022/10/22 08:36:44;;;;;;;1.48;1.30;;;;;;;;;;4491216;28;20583;-63
2022/10/22 08:38:55;;;;;;;1.38;1.05;;;;;;;;;;4490708;28;20293;-63
2022/10/22 08:41:14;;;;;;;3.35;1.35;;;;;;;;;;4490035;28;20499;-63
2022/10/22 08:43:43;;;;;;;1.85;1.27;;;;;;;;;;4489921;28;20027;-63
2022/10/22 08:46:15;;;;;;;2.22;1.50;;;;;;;;;;4490905;28;20030;-63
2022/10/22 08:48:44;;;;;;;1.40;1.17;;;;;;;;;;4491152;28;20102;-64
2022/10/22 08:50:56;;;;;;;1.30;1.00;;;;;;;;;;4490642;28;20038;-62
2022/10/22 08:53:38;;;;;;;2.25;1.23;;;;;;;;;;4489316;28;30622;-62
2022/10/22 08:55:52;;;;;;;1.23;1.02;;;;;;;;;;4464581;28;20051;-63
2022/10/22 08:58:14;;;;;;;1.40;0.98;;;;;;;;;;4498295;28;20100;-63
2022/10/22 09:00:53;;;;;;;1.33;1.08;;;;;;;;;;4488400;28;20149;-63
2022/10/22 09:03:30;;;;;;;3.05;1.20;;;;;;;;;;4488769;28;20034;-63
2022/10/22 09:06:04;;;;;;;1.70;0.95;;;;;;;;;;4489153;28;20567;-62
2022/10/22 09:08:16;;;;;;;1.55;1.00;;;;;;;;;;4493805;28;20573;-62
2022/10/22 09:10:31;;;;;;;1.63;1.00;;;;;;;;;;4491412;28;20046;-62
2022/10/22 09:12:42;;;;;;;1.25;1.00;;;;;;;;;;4490043;28;20121;-62
2022/10/22 09:14:52;;;;;;;1.80;1.23;;;;;;;;;;4489222;28;20478;-62
2022/10/22 09:17:12;;;;;;;1.60;1.05;;;;;;;;;;4498038;28;20138;-62
2022/10/22 09:19:32;;;;;;;1.30;0.98;;;;;;;;;;4490360;28;20025;-63
2022/10/22 09:22:10;;;;;;;1.88;1.00;;;;;;;;;;4488308;28;20199;-62
2022/10/22 09:24:29;;;;;;;1.70;1.20;;;;;;;;;;4488864;28;20066;-63
2022/10/22 09:26:40;;;;;;;1.45;0.90;;;;;;;;;;4494324;28;20041;-62
2022/10/22 09:28:51;;;;;;;2.38;1.20;;;;;;;;;;4489653;28;20046;-62
2022/10/22 09:31:11;;;;;;;1.45;1.08;;;;;;;;;;4494345;28;20400;-62
2022/10/22 09:33:27;;;;;;;2.10;1.13;;;;;;;;;;4495099;28;20603;-62
2022/10/22 09:35:51;;;;;;;1.67;1.02;;;;;;;;;;4488339;28;20084;-62
2022/10/22 09:38:07;;;;;;;1.35;1.00;;;;;;;;;;4489030;28;20791;-62
2022/10/22 09:40:18;;;;;;;2.58;1.10;;;;;;;;;;4491132;28;20076;-62
2022/10/22 09:42:29;;;;;;;1.75;1.05;;;;;;;;;;4489909;28;20613;-62
2022/10/22 09:44:39;;;;;;;2.55;1.10;;;;;;;;;;4490382;28;20096;-62
2022/10/22 09:46:50;;;;;;;1.67;0.93;;;;;;;;;;4487723;28;22485;-62
2022/10/22 09:49:05;;;;;;;1.73;1.25;;;;;;;;;;4498004;28;20470;-62
2022/10/22 09:51:24;;;;;;;2.20;1.10;;;;;;;;;;4489182;28;20152;-62
2022/10/22 09:53:37;;;;;;;1.65;1.00;;;;;;;;;;4489564;28;20738;-61
2022/10/22 09:55:59;;;;;;;1.88;1.17;;;;;;;;;;4490483;28;20042;-62
2022/10/22 09:58:11;;;;;;;2.63;1.10;;;;;;;;;;4471735;28;20198;-62
2022/10/22 10:00:23;;;;;;;1.50;1.00;;;;;;;;;;4491144;28;20164;-62
2022/10/22 10:02:34;;;;;;;1.42;1.08;;;;;;;;;;4488332;28;20042;-63
2022/10/22 10:04:52;;;;;;;1.10;0.90;;;;;;;;;;4491231;28;20033;-62
2022/10/22 10:07:03;;;;;;;1.98;1.00;;;;;;;;;;4480355;28;20121;-62
2022/10/22 10:09:19;;;;;;;2.60;0.80;;;;;;;;;;4488049;28;20030;-62
2022/10/22 10:11:42;;;;;;;1.43;0.70;;;;;;;;;;4487459;28;20045;-62
2022/10/22 10:14:01;;;;;;;1.38;0.80;;;;;;;;;;4491887;28;20257;-62
2022/10/22 10:16:18;;;;;;;1.23;0.80;;;;;;;;;;4492549;28;20577;-62
2022/10/22 10:18:28;;;;;;;1.05;0.77;;;;;;;;;;4488688;28;20240;-62
2022/10/22 10:20:45;;;;;;;1.38;0.90;;;;;;;;;;4497433;28;20060;-62
2022/10/22 10:23:12;;;;;;;2.08;1.00;;;;;;;;;;4497570;28;20037;-62
2022/10/22 10:25:44;;;;;;;1.50;0.90;;;;;;;;;;4491485;28;20026;-62
2022/10/22 10:28:30;;;;;;;2.80;1.10;;;;;;;;;;4490014;28;20097;-61
2022/10/22 10:30:59;;;;;;;2.38;1.20;;;;;;;;;;4494466;28;20465;-62
2022/10/22 10:33:35;;;;;;;1.40;1.00;;;;;;;;;;4487512;28;20112;-62
2022/10/22 10:36:01;;;;;;;2.58;1.10;;;;;;;;;;4491435;28;20026;-62
2022/10/22 10:38:52;;;;;;;1.63;1.02;;;;;;;;;;4496354;28;20658;-62
2022/10/22 10:41:13;;;;;;;1.08;0.80;;;;;;;;;;4488533;28;20603;-62
2022/10/22 10:43:31;;;;;;;1.95;0.90;;;;;;;;;;4488425;28;20038;-62
2022/10/22 10:46:11;;;;;;;3.08;1.05;;;;;;;;;;4496767;28;20405;-62
2022/10/22 10:48:41;;;;;;;2.47;0.98;;;;;;;;;;4491960;28;20096;-62
2022/10/22 10:51:08;;;;;;;1.33;0.80;;;;;;;;;;4489581;28;20029;-62
2022/10/22 10:53:44;;;;;;;1.23;0.77;;;;;;;;;;4488895;28;20664;-62
2022/10/22 10:56:29;;;;;;;1.48;0.90;;;;;;;;;;4487602;28;20038;-63
2022/10/22 10:58:48;;;;;;;1.67;0.88;;;;;;;;;;4487422;28;20577;-62
2022/10/22 11:01:11;;;;;;;1.80;1.13;;;;;;;;;;4488290;28;20030;-62
2022/10/22 11:03:47;;;;;;;2.35;1.45;;;;;;;;;;4492757;28;20802;-61
2022/10/22 11:06:18;;;;;;;2.22;1.00;;;;;;;;;;4487035;28;20607;-62
2022/10/22 11:08:35;;;;;;;2.20;1.20;;;;;;;;;;4487659;28;20060;-63
2022/10/22 11:10:49;;;;;;;1.58;1.05;;;;;;;;;;4488051;28;20746;-63
2022/10/22 11:13:10;;;;;;;1.70;1.00;;;;;;;;;;4487440;28;20014;-63
2022/10/22 11:15:32;;;;;;;3.55;1.38;;;;;;;;;;4489090;28;20038;-63
2022/10/22 11:17:46;;;;;;;1.95;1.10;;;;;;;;;;4487253;28;20092;-64
2022/10/22 11:20:02;;;;;;;1.70;1.15;;;;;;;;;;4491942;28;25882;-63
2022/10/22 11:22:22;;;;;;;1.90;1.10;;;;;;;;;;4491924;28;20044;-64
2022/10/22 11:24:39;;;;;;;1.30;1.00;;;;;;;;;;4486101;28;20077;-63
2022/10/22 11:26:57;;;;;;;1.40;1.30;;;;;;;;;;4487959;28;20617;-63
2022/10/22 11:29:12;;;;;;;2.55;1.60;;;;;;;;;;4488236;28;21039;-63
2022/10/22 11:31:24;;;;;;;1.73;1.55;;;;;;;;;;4487507;28;20548;-63
2022/10/22 11:33:43;;;;;;;2.38;1.75;;;;;;;;;;4474557;28;20034;-63
2022/10/22 11:35:56;;;;;;;2.20;1.60;;;;;;;;;;4487486;28;20034;-63
2022/10/22 11:38:11;;;;;;;1.55;1.40;;;;;;;;;;4486981;28;20049;-64
2022/10/22 11:40:32;;;;;;;2.38;1.55;;;;;;;;;;4483708;28;20030;-63
2022/10/22 11:42:49;;;;;;;2.95;1.30;;;;;;;;;;4502732;28;20046;-63
2022/10/22 11:45:03;;;;;;;2.38;1.30;;;;;;;;;;4488688;28;20122;-63
2022/10/22 11:47:18;;;;;;;1.90;1.50;;;;;;;;;;4492453;28;20038;-63
2022/10/22 11:49:43;;;;;;;1.83;1.40;;;;;;;;;;4490250;28;20042;-63
2022/10/22 11:52:22;;;;;;;1.63;1.20;;;;;;;;;;4489642;28;20324;-63
2022/10/22 11:54:33;;;;;;;1.88;1.40;;;;;;;;;;4488625;28;20533;-66
2022/10/22 11:56:43;;;;;;;1.55;1.20;;;;;;;;;;4491678;28;20374;-63
2022/10/22 11:58:54;;;;;;;2.72;1.23;;;;;;;;;;4491156;28;27646;-63
2022/10/22 12:01:07;;;;;;;2.03;1.20;;;;;;;;;;4499240;28;20527;-63
2022/10/22 12:03:24;;;;;;;1.40;1.10;;;;;;;;;;4499588;28;20037;-63
2022/10/22 12:05:35;;;;;;;2.15;1.20;;;;;;;;;;4481977;28;20027;-63
2022/10/22 12:07:53;;;;;;;1.58;1.00;;;;;;;;;;4489083;28;20542;-63
2022/10/22 12:10:10;;;;;;;1.38;1.17;;;;;;;;;;4493867;28;20037;-63
2022/10/22 12:12:21;;;;;;;2.25;1.10;;;;;;;;;;4498412;28;20034;-63
2022/10/22 12:14:34;;;;;;;1.90;1.20;;;;;;;;;;4482266;28;30438;-63
2022/10/22 12:16:51;;;;;;;1.77;1.15;;;;;;;;;;4489159;28;20641;-63
2022/10/22 12:19:24;;;;;;;;;;;;;;;;;;4491791;28;20038;-63
2022/10/22 12:21:37;;;;;;;1.15;0.90;;;;;;;;;;4488678;28;19929;-64
2022/10/22 12:23:48;;;;;;;1.65;0.90;;;;;;;;;;4491385;28;20038;-63
2022/10/22 12:25:58;;;;;;;1.10;0.98;;;;;;;;;;4498381;28;36005;-63
2022/10/22 12:28:11;;;;;;;1.02;0.90;;;;;;;;;;4492366;28;20489;-65
2022/10/22 12:30:27;;;;;;;1.55;0.90;;;;;;;;;;4482963;28;20740;-65
2022/10/22 12:32:40;;;;;;;1.25;1.00;;;;;;;;;;4489392;28;20042;-64
2022/10/22 12:34:51;;;;;;;1.25;0.95;;;;;;;;;;4489252;28;20121;-62
2022/10/22 12:37:03;;;;;;;1.15;0.90;;;;;;;;;;4487922;28;20057;-63
2022/10/22 12:39:24;;;;;;;1.75;1.10;;;;;;;;;;4493516;28;20037;-64
2022/10/22 12:41:36;;;;;;;1.55;1.00;;;;;;;;;;4490509;28;20034;-63
2022/10/22 12:43:46;;;;;;;1.35;0.98;;;;;;;;;;4490555;28;20065;-63
2022/10/22 12:45:58;;;;;;;0.90;0.88;;;;;;;;;;4491763;28;20457;-63
2022/10/22 12:48:17;;;;;;;1.52;1.20;;;;;;;;;;4498037;28;20042;-63
2022/10/22 12:50:32;;;;;;;1.40;0.80;;;;;;;;;;4490987;28;20543;-63
2022/10/22 12:52:42;;;;;;;1.20;0.82;;;;;;;;;;4490878;28;20084;-63
2022/10/22 12:54:53;;;;;;;0.90;0.90;;;;;;;;;;4490095;28;20603;-63
2022/10/22 12:57:04;;;;;;;1.10;0.80;;;;;;;;;;4489772;28;20037;-63
2022/10/22 12:59:34;;;;;;;1.45;0.90;;;;;;;;;;4490756;28;20058;-64
2022/10/22 13:01:45;;;;;;;1.27;1.00;;;;;;;;;;4490966;28;20069;-63
2022/10/22 13:04:11;;;;;;;2.17;1.10;;;;;;;;;;4490661;28;20045;-63
2022/10/22 13:06:24;;;;;;;1.73;1.02;;;;;;;;;;4489136;28;20046;-64
2022/10/22 13:08:37;;;;;;;1.17;0.90;;;;;;;;;;4490058;28;20042;-63
2022/10/22 13:10:50;;;;;;;1.15;0.80;;;;;;;;;;4490780;28;20637;-64
2022/10/22 13:13:05;;;;;;;1.48;0.85;;;;;;;;;;4491011;28;20033;-63
2022/10/22 13:15:26;;;;;;;1.92;0.90;;;;;;;;;;4490189;28;20038;-63
2022/10/22 13:17:39;;;;;;;1.15;1.00;;;;;;;;;;4489676;28;20181;-62
2022/10/22 13:19:52;;;;;;;1.15;0.80;;;;;;;;;;4492847;28;20034;-62
2022/10/22 13:22:03;;;;;;;2.20;1.00;;;;;;;;;;4486394;28;20034;-62
2022/10/22 13:24:22;;;;;;;1.10;1.00;;;;;;;;;;4490082;28;20041;-63
2022/10/22 13:26:35;;;;;;;2.63;1.10;;;;;;;;;;4497485;28;20080;-63
2022/10/22 13:28:50;;;;;;;0.90;0.90;;;;;;;;;;4491903;28;20195;-63